Time;durP1;ratioP1;P1;durP2;ratioP2;P2;SDS_P1;SDS_P2;PMS_P1;PMS_P2;Temp;Humidity;BMP_temperature;BMP_pressure;BME280_temperature;BME280_humidity;BME280_pressure;Samples;Min_cycle;Max_cycle;Signal;HPM_P1;HPM_P2
2023/06/20 00:02:21;;;;;;;14.40;12.90;;;20.80;99.90;;;;;;5192328;28;20263;-43
2023/06/20 00:04:52;;;;;;;14.37;12.87;;;20.70;99.90;;;;;;5192843;28;20211;-43
2023/06/20 00:07:23;;;;;;;14.13;12.27;;;20.70;99.90;;;;;;5184685;28;20997;-41
2023/06/20 00:09:53;;;;;;;19.93;15.90;;;20.60;99.90;;;;;;5190033;28;20245;-42
2023/06/20 00:12:24;;;;;;;16.40;14.57;;;20.60;99.90;;;;;;5203661;28;20203;-42
2023/06/20 00:14:55;;;;;;;16.27;12.57;;;20.50;99.90;;;;;;5184959;28;20199;-42
2023/06/20 00:17:26;;;;;;;15.97;14.23;;;20.50;99.90;;;;;;5195571;28;21000;-42
2023/06/20 00:19:57;;;;;;;16.60;13.13;;;20.40;99.90;;;;;;5205999;28;20202;-42
2023/06/20 00:22:27;;;;;;;19.63;11.77;;;20.40;99.90;;;;;;5190926;28;20630;-42
2023/06/20 00:24:58;;;;;;;12.50;11.20;;;20.40;99.90;;;;;;5210981;28;20180;-42
2023/06/20 00:27:29;;;;;;;12.87;11.47;;;20.40;99.90;;;;;;5206837;28;20204;-44
2023/06/20 00:30:00;;;;;;;15.10;12.80;;;20.30;99.90;;;;;;5179332;28;20176;-43
2023/06/20 00:32:31;;;;;;;16.07;13.80;;;20.30;99.90;;;;;;5193045;28;20180;-43
2023/06/20 00:35:02;;;;;;;23.90;13.43;;;20.30;99.90;;;;;;5209684;28;20516;-42
2023/06/20 00:37:36;;;;;;;22.10;15.70;;;20.30;99.90;;;;;;5209317;28;20563;-43
2023/06/20 00:40:07;;;;;;;20.90;15.80;;;20.30;99.90;;;;;;5188218;28;20975;-42
2023/06/20 00:42:39;;;;;;;17.10;14.03;;;20.30;99.90;;;;;;5209907;28;20739;-42
2023/06/20 00:45:39;;;;;;;21.37;14.97;;;20.40;99.90;;;;;;5166803;28;20419;-43
2023/06/20 00:48:10;;;;;;;15.73;13.53;;;20.40;99.90;;;;;;5188742;28;20446;-43
2023/06/20 00:50:42;;;;;;;18.77;14.30;;;20.50;99.90;;;;;;5209821;28;20496;-42
2023/06/20 00:53:13;;;;;;;18.67;14.23;;;20.50;99.90;;;;;;5199996;28;20184;-42
2023/06/20 00:55:44;;;;;;;16.07;13.03;;;20.50;99.90;;;;;;5192614;28;20435;-42
2023/06/20 00:58:15;;;;;;;21.60;15.10;;;20.50;99.90;;;;;;5204782;28;20282;-43
2023/06/20 01:00:46;;;;;;;16.07;14.47;;;20.40;99.90;;;;;;5207243;28;20426;-42
2023/06/20 01:03:18;;;;;;;19.80;14.67;;;20.40;99.90;;;;;;5185368;28;20513;-42
2023/06/20 01:06:05;;;;;;;16.57;14.17;;;20.40;99.90;;;;;;5199671;28;20180;-42
2023/06/20 01:08:45;;;;;;;13.67;12.27;;;20.30;99.90;;;;;;5210205;28;20450;-44
2023/06/20 01:11:38;;;;;;;17.13;14.50;;;20.30;99.90;;;;;;5194709;28;20588;-42
2023/06/20 01:14:22;;;;;;;16.30;14.40;;;20.30;99.90;;;;;;5208806;28;20430;-42
2023/06/20 01:17:00;;;;;;;19.50;14.63;;;20.20;99.90;;;;;;5201008;28;20455;-43
2023/06/20 01:19:34;;;;;;;20.60;14.40;;;20.20;99.90;;;;;;5198618;28;20430;-43
2023/06/20 01:22:12;;;;;;;19.67;15.20;;;20.10;99.90;;;;;;5217140;28;20535;-43
2023/06/20 01:24:58;;;;;;;21.87;15.17;;;20.10;99.90;;;;;;5226349;28;20470;-43
2023/06/20 01:27:36;;;;;;;18.40;15.97;;;20.00;99.90;;;;;;5192519;28;20449;-43
2023/06/20 01:30:12;;;;;;;18.20;14.80;;;20.00;99.90;;;;;;5190838;28;20438;-43
2023/06/20 01:32:50;;;;;;;18.87;16.00;;;19.90;99.90;;;;;;5188832;28;20469;-43
2023/06/20 01:35:26;;;;;;;26.53;15.07;;;19.80;99.90;;;;;;5184316;28;20444;-42
2023/06/20 01:38:05;;;;;;;24.10;17.17;;;19.80;99.90;;;;;;5191136;28;20488;-43
2023/06/20 01:40:37;;;;;;;19.57;15.63;;;19.80;99.90;;;;;;5209336;28;20813;-43
2023/06/20 01:43:11;;;;;;;21.67;17.47;;;19.70;99.90;;;;;;5203689;28;20475;-42
2023/06/20 01:45:44;;;;;;;21.63;18.53;;;19.70;99.90;;;;;;5196322;28;20461;-43
2023/06/20 01:48:18;;;;;;;25.17;18.00;;;19.60;99.90;;;;;;5210763;28;20441;-43
2023/06/20 01:50:52;;;;;;;23.57;17.00;;;19.60;99.90;;;;;;5196157;28;21016;-43
2023/06/20 01:53:25;;;;;;;22.43;17.63;;;19.50;99.90;;;;;;5191953;28;20430;-44
2023/06/20 01:55:56;;;;;;;26.03;17.83;;;19.50;99.90;;;;;;5188986;28;20434;-43
2023/06/20 01:58:28;;;;;;;17.40;15.17;;;19.50;99.90;;;;;;5172093;28;20459;-42
2023/06/20 02:01:01;;;;;;;20.97;15.93;;;19.40;99.90;;;;;;5197897;28;20419;-42
2023/06/20 02:03:32;;;;;;;15.70;14.10;;;19.40;99.90;;;;;;5206981;28;20457;-43
2023/06/20 02:06:04;;;;;;;15.80;14.20;;;19.30;99.90;;;;;;5208556;28;20442;-41
2023/06/20 02:08:37;;;;;;;17.67;15.77;;;19.30;99.90;;;;;;5203738;28;20453;-42
2023/06/20 02:11:09;;;;;;;23.20;17.57;;;19.30;99.90;;;;;;5188124;28;20827;-41
2023/06/20 02:13:40;;;;;;;20.23;15.27;;;19.30;99.90;;;;;;5175399;28;20432;-43
2023/06/20 02:16:12;;;;;;;17.97;14.67;;;19.30;99.90;;;;;;5188528;28;20446;-43
2023/06/20 02:18:43;;;;;;;23.40;14.90;;;19.30;99.90;;;;;;5179721;28;20480;-41
2023/06/20 02:21:22;;;;;;;20.83;16.00;;;19.30;99.90;;;;;;5211590;28;20498;-43
2023/06/20 02:23:55;;;;;;;20.10;16.27;;;19.30;99.90;;;;;;5195952;28;20434;-42
2023/06/20 02:26:31;;;;;;;20.37;16.40;;;19.30;99.90;;;;;;5189068;28;20438;-42
2023/06/20 02:29:08;;;;;;;26.90;16.70;;;19.20;99.90;;;;;;5194332;28;20477;-41
2023/06/20 02:31:45;;;;;;;19.47;15.73;;;19.20;99.90;;;;;;5189514;28;20455;-41
2023/06/20 02:34:20;;;;;;;18.10;14.33;;;19.20;99.90;;;;;;5185222;28;20438;-42
2023/06/20 02:36:53;;;;;;;19.70;14.50;;;19.30;99.90;;;;;;5205870;28;20434;-43
2023/06/20 02:39:24;;;;;;;20.27;15.10;;;19.20;99.90;;;;;;5205117;28;20855;-42
2023/06/20 02:41:57;;;;;;;26.50;16.47;;;19.20;99.90;;;;;;5206440;28;20430;-41
2023/06/20 02:44:31;;;;;;;18.97;15.23;;;19.20;99.90;;;;;;5182169;28;20430;-42
2023/06/20 02:47:23;;;;;;;20.50;16.13;;;19.20;99.90;;;;;;5199771;28;20459;-42
2023/06/20 02:50:01;;;;;;;20.50;16.70;;;19.20;99.90;;;;;;5188513;28;20481;-42
2023/06/20 02:52:50;;;;;;;19.10;15.90;;;19.20;99.90;;;;;;5173488;28;20936;-42
2023/06/20 02:55:34;;;;;;;17.93;14.47;;;19.30;99.90;;;;;;5196779;28;20530;-41
2023/06/20 02:58:14;;;;;;;17.83;15.90;;;19.30;99.90;;;;;;5192939;28;20489;-43
2023/06/20 03:00:49;;;;;;;22.93;15.20;;;19.40;99.90;;;;;;5174675;28;20480;-43
2023/06/20 03:03:27;;;;;;;16.30;14.60;;;19.40;99.90;;;;;;5200581;28;20438;-43
2023/06/20 03:05:59;;;;;;;17.80;14.57;;;19.50;99.90;;;;;;5190373;28;20796;-44
2023/06/20 03:08:33;;;;;;;21.10;15.70;;;19.60;99.90;;;;;;5189323;28;20459;-42
2023/06/20 03:11:04;;;;;;;17.27;13.40;;;19.60;99.90;;;;;;5191814;28;20539;-42
2023/06/20 03:13:34;;;;;;;16.20;13.40;;;19.70;99.90;;;;;;5187123;28;20447;-43
2023/06/20 03:16:09;;;;;;;21.53;16.50;;;19.70;99.90;;;;;;5197116;28;20192;-43
2023/06/20 03:18:40;;;;;;;21.77;16.10;;;19.70;99.90;;;;;;5200110;28;20278;-42
2023/06/20 03:21:11;;;;;;;26.17;15.80;;;19.70;99.90;;;;;;5201244;28;20572;-41
2023/06/20 03:23:41;;;;;;;22.13;15.57;;;19.70;99.90;;;;;;5168555;28;20185;-42
2023/06/20 03:26:12;;;;;;;19.53;14.97;;;19.70;99.90;;;;;;5170047;28;20180;-42
2023/06/20 03:28:43;;;;;;;20.93;16.20;;;19.80;99.90;;;;;;5200375;28;20202;-42
2023/06/20 03:31:13;;;;;;;21.77;15.40;;;19.80;99.90;;;;;;5190143;28;20613;-41
2023/06/20 03:33:44;;;;;;;24.70;18.90;;;19.90;99.90;;;;;;5210536;28;20264;-42
2023/06/20 03:36:15;;;;;;;21.07;16.67;;;20.00;99.90;;;;;;5193512;28;20195;-42
2023/06/20 03:38:46;;;;;;;18.23;14.33;;;20.00;99.90;;;;;;5173024;28;20211;-42
2023/06/20 03:41:17;;;;;;;18.30;14.30;;;20.10;99.90;;;;;;5203254;28;20191;-42
2023/06/20 03:43:47;;;;;;;18.10;14.53;;;20.30;99.90;;;;;;5195093;28;20607;-43
2023/06/20 03:46:18;;;;;;;20.00;15.43;;;20.50;99.90;;;;;;5190918;28;20258;-42
2023/06/20 03:48:49;;;;;;;26.13;17.73;;;20.60;99.90;;;;;;5214945;28;20199;-42
2023/06/20 03:51:19;;;;;;;21.77;17.90;;;20.60;99.90;;;;;;5215004;28;20203;-42
2023/06/20 03:53:50;;;;;;;17.60;15.67;;;20.70;99.90;;;;;;5213312;28;20738;-43
2023/06/20 03:56:21;;;;;;;23.03;16.67;;;20.70;99.90;;;;;;5205482;28;20184;-42
2023/06/20 03:58:52;;;;;;;22.60;18.03;;;20.80;99.90;;;;;;5210599;28;20194;-42
2023/06/20 04:01:24;;;;;;;21.20;17.30;;;20.90;99.90;;;;;;5193683;28;20191;-43
2023/06/20 04:03:55;;;;;;;28.70;18.80;;;20.90;99.90;;;;;;5196720;28;20438;-42
2023/06/20 04:06:30;;;;;;;18.17;15.13;;;20.90;99.90;;;;;;5196127;28;20814;-42
2023/06/20 04:09:01;;;;;;;21.13;16.37;;;20.80;99.90;;;;;;5210838;28;20183;-42
2023/06/20 04:11:32;;;;;;;22.10;16.13;;;20.80;99.90;;;;;;5195986;28;20466;-41
2023/06/20 04:14:03;;;;;;;19.40;14.13;;;20.70;99.90;;;;;;5204046;28;20504;-41
2023/06/20 04:16:34;;;;;;;18.33;14.97;;;20.70;99.90;;;;;;5195381;28;20545;-41
2023/06/20 04:19:04;;;;;;;20.10;15.23;;;20.80;99.90;;;;;;5188149;28;20607;-42
2023/06/20 04:21:35;;;;;;;26.27;18.17;;;20.80;99.90;;;;;;5213945;28;20210;-42
2023/06/20 04:24:06;;;;;;;22.63;17.20;;;20.80;99.90;;;;;;5214835;28;20187;-41
2023/06/20 04:26:37;;;;;;;21.83;15.60;;;20.90;99.90;;;;;;5195923;28;20664;-41
2023/06/20 04:29:07;;;;;;;19.53;13.73;;;21.00;99.90;;;;;;5207107;28;20490;-42
2023/06/20 04:31:38;;;;;;;28.50;17.20;;;21.20;99.90;;;;;;5207813;28;20213;-43
2023/06/20 04:34:09;;;;;;;22.07;15.70;;;21.30;99.90;;;;;;5213388;28;20172;-42
2023/06/20 04:36:40;;;;;;;21.80;16.23;;;21.50;99.90;;;;;;5192144;28;20235;-42
2023/06/20 04:39:11;;;;;;;17.93;15.70;;;21.70;99.90;;;;;;5207370;28;20223;-44
2023/06/20 04:41:42;;;;;;;19.23;16.20;;;21.90;99.90;;;;;;5189255;28;20237;-43
2023/06/20 04:44:12;;;;;;;18.60;15.00;;;22.20;99.90;;;;;;5201050;28;20450;-44
2023/06/20 04:46:43;;;;;;;18.33;14.20;;;22.80;99.90;;;;;;5213422;28;20210;-42
2023/06/20 04:49:14;;;;;;;18.80;14.07;;;23.30;99.90;;;;;;5196920;28;20667;-45
2023/06/20 04:51:47;;;;;;;18.53;15.30;;;23.70;99.90;;;;;;5186261;28;20204;-42
2023/06/20 04:54:19;;;;;;;15.33;12.60;;;24.00;99.90;;;;;;5210282;28;20206;-43
2023/06/20 04:56:50;;;;;;;20.47;15.90;;;24.20;99.90;;;;;;5181274;28;20518;-43
2023/06/20 04:59:21;;;;;;;21.30;18.23;;;24.60;99.90;;;;;;5173257;28;20485;-42
2023/06/20 05:01:51;;;;;;;21.00;14.93;;;24.50;98.80;;;;;;5207288;28;20307;-43
2023/06/20 05:04:22;;;;;;;22.20;16.90;;;24.00;99.20;;;;;;5208968;28;20187;-42
2023/06/20 05:06:55;;;;;;;24.47;15.83;;;23.50;99.80;;;;;;5170570;28;20291;-42
2023/06/20 05:09:26;;;;;;;25.03;15.67;;;23.10;99.90;;;;;;5193517;28;20184;-42
2023/06/20 05:11:57;;;;;;;19.93;15.50;;;22.80;99.90;;;;;;5172736;28;20466;-42
2023/06/20 05:14:27;;;;;;;23.40;16.57;;;22.70;99.90;;;;;;5208465;28;20456;-42
2023/06/20 05:16:58;;;;;;;18.83;16.00;;;22.50;99.90;;;;;;5184671;28;20206;-42
2023/06/20 05:19:29;;;;;;;22.63;15.53;;;22.30;99.90;;;;;;5193730;28;20485;-42
2023/06/20 05:22:00;;;;;;;20.10;15.73;;;22.00;99.90;;;;;;5193738;28;20184;-44
2023/06/20 05:24:31;;;;;;;22.23;15.77;;;21.80;99.90;;;;;;5203262;28;20261;-42
2023/06/20 05:27:02;;;;;;;24.27;16.63;;;21.70;99.90;;;;;;5210038;28;20258;-43
2023/06/20 05:29:32;;;;;;;19.80;16.70;;;21.70;99.90;;;;;;5215050;28;20188;-42
2023/06/20 05:32:04;;;;;;;24.70;18.50;;;21.70;99.90;;;;;;5209189;28;20199;-42
2023/06/20 05:34:35;;;;;;;24.63;17.20;;;21.70;99.90;;;;;;5186480;28;20545;-41
2023/06/20 05:37:06;;;;;;;22.30;17.00;;;21.60;99.90;;;;;;5208207;28;20431;-42
2023/06/20 05:39:37;;;;;;;27.77;17.73;;;21.40;99.90;;;;;;5175503;28;20195;-42
2023/06/20 05:42:08;;;;;;;22.80;17.57;;;21.40;99.90;;;;;;5196173;28;20187;-43
2023/06/20 05:44:38;;;;;;;21.63;15.10;;;21.40;99.90;;;;;;5204159;28;20244;-42
2023/06/20 05:47:17;;;;;;;25.07;19.20;;;21.40;99.90;;;;;;5220194;28;20487;-43
2023/06/20 05:49:48;;;;;;;32.63;20.60;;;21.30;99.90;;;;;;5192618;28;20606;-43
2023/06/20 05:52:19;;;;;;;28.53;21.10;;;21.40;99.90;;;;;;5191436;28;20983;-41
2023/06/20 05:54:53;;;;;;;24.53;19.27;;;21.40;99.90;;;;;;5207221;28;20442;-42
2023/06/20 05:57:24;;;;;;;30.47;20.60;;;21.50;99.90;;;;;;5185726;28;20990;-42
2023/06/20 05:59:55;;;;;;;30.63;21.93;;;21.90;99.90;;;;;;5196355;28;20490;-42
2023/06/20 06:02:26;;;;;;;20.47;18.23;;;22.20;99.90;;;;;;5203970;28;20188;-42
2023/06/20 06:04:58;;;;;;;27.13;19.53;;;23.20;99.90;;;;;;5207809;28;20870;-43
2023/06/20 06:07:30;;;;;;;35.17;21.10;;;24.90;99.90;;;;;;5192594;28;20200;-45
2023/06/20 06:10:01;;;;;;;25.80;18.10;;;25.40;99.70;;;;;;5205255;28;20415;-42
2023/06/20 06:12:32;;;;;;;26.77;19.23;;;26.30;97.10;;;;;;5186311;28;20571;-41
2023/06/20 06:15:04;;;;;;;25.07;17.77;;;26.80;93.50;;;;;;5187390;28;20708;-42
2023/06/20 06:17:35;;;;;;;24.23;19.07;;;26.70;93.70;;;;;;5198375;28;20454;-42
2023/06/20 06:20:10;;;;;;;28.50;18.93;;;27.50;90.50;;;;;;5186365;28;20569;-42
2023/06/20 06:22:41;;;;;;;21.90;17.07;;;28.20;85.40;;;;;;5202503;28;20694;-43
2023/06/20 06:25:11;;;;;;;22.00;15.47;;;29.20;79.20;;;;;;5210677;28;20414;-41
2023/06/20 06:27:42;;;;;;;19.87;16.97;;;30.70;70.70;;;;;;5212816;28;20324;-42
2023/06/20 06:30:15;;;;;;;23.80;17.23;;;31.40;62.50;;;;;;5197834;28;20203;-42
2023/06/20 06:32:47;;;;;;;17.10;14.50;;;31.40;60.30;;;;;;5178991;28;20199;-43
2023/06/20 06:35:19;;;;;;;20.80;16.57;;;32.10;57.50;;;;;;5185904;28;20844;-43
2023/06/20 06:37:50;;;;;;;23.57;17.33;;;32.90;54.20;;;;;;5203354;28;20462;-42
2023/06/20 06:40:20;;;;;;;20.60;16.70;;;33.40;51.00;;;;;;5206170;28;20726;-42
2023/06/20 06:42:51;;;;;;;21.20;17.17;;;33.00;50.90;;;;;;5203887;28;20672;-43
2023/06/20 06:45:22;;;;;;;17.37;15.50;;;33.10;50.50;;;;;;5185013;28;20250;-43
2023/06/20 06:47:54;;;;;;;22.47;16.30;;;33.50;50.10;;;;;;5203752;28;20282;-42
2023/06/20 06:50:25;;;;;;;26.60;17.33;;;34.30;48.00;;;;;;5197316;28;20203;-43
2023/06/20 06:52:56;;;;;;;25.42;19.23;;;34.80;47.20;;;;;;5187439;28;20233;-45
2023/06/20 06:55:27;;;;;;;18.40;15.18;;;36.10;44.50;;;;;;5211156;28;20217;-42
2023/06/20 06:57:58;;;;;;;20.40;16.33;;;36.80;43.00;;;;;;5195562;28;20230;-43
2023/06/20 07:00:29;;;;;;;27.92;18.48;;;37.00;41.80;;;;;;5206586;28;20262;-42
2023/06/20 07:02:59;;;;;;;15.55;13.98;;;37.40;40.50;;;;;;5201140;28;20214;-42
2023/06/20 07:05:30;;;;;;;20.30;16.83;;;38.10;39.60;;;;;;5172807;28;20607;-43
2023/06/20 07:08:01;;;;;;;22.75;16.95;;;38.10;38.80;;;;;;5205153;28;20288;-44
2023/06/20 07:10:32;;;;;;;17.38;14.50;;;38.40;38.30;;;;;;5174361;28;20520;-43
2023/06/20 07:13:06;;;;;;;19.52;17.05;;;38.50;38.40;;;;;;5196850;28;20213;-42
2023/06/20 07:15:37;;;;;;;21.67;15.57;;;37.80;38.00;;;;;;5199744;28;20183;-42
2023/06/20 07:18:08;;;;;;;22.70;16.17;;;37.20;39.10;;;;;;5203716;28;20225;-43
2023/06/20 07:20:39;;;;;;;18.15;16.13;;;36.70;38.90;;;;;;5200139;28;20183;-42
2023/06/20 07:23:10;;;;;;;18.67;16.27;;;36.00;40.30;;;;;;5179542;28;20679;-43
2023/06/20 07:25:41;;;;;;;22.93;16.50;;;34.50;42.00;;;;;;5170724;28;20190;-43
2023/06/20 07:28:11;;;;;;;17.70;13.98;;;33.00;44.40;;;;;;5178635;28;20217;-43
2023/06/20 07:30:43;;;;;;;25.23;16.60;;;31.60;47.00;;;;;;5200031;28;20207;-42
2023/06/20 07:33:14;;;;;;;19.67;16.33;;;30.70;48.90;;;;;;5196578;28;20238;-43
2023/06/20 07:35:44;;;;;;;24.43;17.27;;;29.70;51.30;;;;;;5188429;28;20525;-43
2023/06/20 07:38:15;;;;;;;21.40;16.80;;;28.80;53.30;;;;;;5196252;28;20602;-43
2023/06/20 07:40:46;;;;;;;33.40;16.33;;;28.50;54.60;;;;;;5207335;28;20199;-44
2023/06/20 07:43:19;;;;;;;22.30;17.37;;;28.20;55.10;;;;;;5189952;28;20604;-43
2023/06/20 07:45:50;;;;;;;17.60;14.13;;;28.10;55.90;;;;;;5198797;28;20183;-42
2023/06/20 07:48:24;;;;;;;17.00;14.03;;;28.00;56.20;;;;;;5187039;28;21009;-42
2023/06/20 07:50:57;;;;;;;25.00;18.57;;;28.00;56.20;;;;;;5187329;28;20207;-42
2023/06/20 07:53:28;;;;;;;17.47;15.73;;;28.00;56.80;;;;;;5202882;28;20489;-43
2023/06/20 07:55:59;;;;;;;19.90;15.83;;;27.80;56.90;;;;;;5189148;28;20454;-43
2023/06/20 07:58:30;;;;;;;20.27;16.70;;;27.70;58.10;;;;;;5201639;28;20281;-42
2023/06/20 08:01:01;;;;;;;27.70;18.50;;;27.80;58.80;;;;;;5195231;28;20970;-42
2023/06/20 08:03:32;;;;;;;24.40;16.83;;;27.70;58.60;;;;;;5177650;28;20191;-43
2023/06/20 08:06:03;;;;;;;26.40;17.93;;;27.60;58.50;;;;;;5177722;28;20184;-43
2023/06/20 08:08:34;;;;;;;24.53;17.60;;;27.60;58.90;;;;;;5205649;28;20191;-42
2023/06/20 08:11:05;;;;;;;15.87;13.97;;;27.70;58.70;;;;;;5178462;28;20459;-42
2023/06/20 08:13:36;;;;;;;29.60;18.10;;;28.20;58.20;;;;;;5203994;28;20192;-42
2023/06/20 08:16:07;;;;;;;20.43;16.77;;;28.70;57.00;;;;;;5202752;28;20183;-43
2023/06/20 08:18:37;;;;;;;28.47;19.20;;;28.70;57.00;;;;;;5194757;28;20212;-43
2023/06/20 08:21:08;;;;;;;28.53;19.53;;;28.60;57.40;;;;;;5199594;28;20191;-43
2023/06/20 08:23:39;;;;;;;22.00;16.80;;;28.30;58.20;;;;;;5195769;28;20176;-43
2023/06/20 08:26:10;;;;;;;16.37;13.33;;;28.10;58.50;;;;;;5201584;28;20183;-44
2023/06/20 08:28:40;;;;;;;23.00;17.13;;;28.10;58.60;;;;;;5208408;28;20567;-43
2023/06/20 08:31:11;;;;;;;19.30;14.60;;;28.20;58.70;;;;;;5187342;28;20576;-42
2023/06/20 08:33:43;;;;;;;21.77;16.20;;;28.20;58.80;;;;;;5196844;28;20664;-42
2023/06/20 08:36:14;;;;;;;26.97;18.07;;;28.20;58.80;;;;;;5194407;28;20179;-42
2023/06/20 08:38:45;;;;;;;27.33;17.67;;;27.80;59.30;;;;;;5207050;28;20493;-43
2023/06/20 08:41:16;;;;;;;25.93;18.53;;;27.50;60.30;;;;;;5205852;28;20446;-43
2023/06/20 08:43:47;;;;;;;27.57;18.97;;;27.30;61.20;;;;;;5199318;28;20415;-42
2023/06/20 08:46:18;;;;;;;22.77;18.40;;;27.10;62.00;;;;;;5211847;28;20187;-43
2023/06/20 08:48:49;;;;;;;23.07;17.70;;;27.00;62.80;;;;;;5194277;28;20200;-42
2023/06/20 08:51:22;;;;;;;36.00;18.03;;;26.80;63.60;;;;;;5190505;28;20985;-43
2023/06/20 08:53:54;;;;;;;23.33;17.80;;;26.70;64.30;;;;;;5188346;28;20549;-43
2023/06/20 08:56:26;;;;;;;27.67;18.87;;;26.90;64.00;;;;;;5210980;28;20989;-44
2023/06/20 08:58:57;;;;;;;19.47;16.37;;;27.00;64.50;;;;;;5190858;28;20453;-43
2023/06/20 09:01:27;;;;;;;18.20;14.23;;;27.10;64.50;;;;;;5201295;28;20788;-42
2023/06/20 09:04:02;;;;;;;20.23;15.47;;;27.20;63.90;;;;;;5212252;28;20262;-42
2023/06/20 09:06:37;;;;;;;19.97;14.20;;;27.50;63.10;;;;;;5192185;28;20240;-42
2023/06/20 09:09:17;;;;;;;21.87;15.40;;;27.60;63.00;;;;;;5194232;28;20569;-42
2023/06/20 09:11:56;;;;;;;21.00;15.33;;;27.70;63.10;;;;;;5195832;28;20450;-42
2023/06/20 09:14:27;;;;;;;19.20;14.83;;;27.80;63.30;;;;;;5201034;28;20454;-44
2023/06/20 09:16:59;;;;;;;21.13;16.00;;;27.70;63.40;;;;;;5194222;28;20439;-42
2023/06/20 09:19:43;;;;;;;20.23;15.40;;;27.70;63.40;;;;;;5197404;28;20533;-43
2023/06/20 09:22:18;;;;;;;23.90;15.50;;;27.60;63.00;;;;;;5207117;28;20442;-43
2023/06/20 09:24:48;;;;;;;29.27;18.40;;;27.60;63.00;;;;;;5188507;28;20445;-43
2023/06/20 09:27:21;;;;;;;29.40;16.80;;;27.40;63.20;;;;;;5201886;28;20455;-43
2023/06/20 09:29:53;;;;;;;28.10;17.07;;;27.10;64.30;;;;;;5182610;28;20706;-41
2023/06/20 09:32:23;;;;;;;25.03;17.53;;;26.90;65.10;;;;;;5187705;28;20486;-43
2023/06/20 09:35:01;;;;;;;23.63;17.17;;;26.60;66.00;;;;;;5178637;28;20411;-43
2023/06/20 09:37:46;;;;;;;18.70;16.50;;;26.40;67.00;;;;;;5177314;28;20211;-43
2023/06/20 09:40:19;;;;;;;23.23;16.77;;;26.30;67.90;;;;;;5192557;28;20461;-42
2023/06/20 09:42:56;;;;;;;25.57;17.97;;;25.90;70.00;;;;;;5206592;28;20802;-42
2023/06/20 09:45:27;;;;;;;25.63;18.27;;;25.40;76.30;;;;;;5209090;28;20449;-43
2023/06/20 09:47:58;;;;;;;27.07;20.03;;;24.70;81.90;;;;;;5193721;28;20471;-43
2023/06/20 09:50:31;;;;;;;23.30;18.03;;;24.20;89.70;;;;;;5193143;28;20192;-43
2023/06/20 09:53:27;;;;;;;25.40;19.00;;;24.00;96.30;;;;;;5203974;28;20435;-42
2023/06/20 09:55:58;;;;;;;30.33;19.83;;;23.50;99.90;;;;;;5181107;28;20574;-43
2023/06/20 09:58:31;;;;;;;29.00;22.97;;;23.00;99.90;;;;;;5194264;28;20450;-43
2023/06/20 10:01:04;;;;;;;30.23;21.13;;;22.40;99.90;;;;;;5209348;28;20438;-43
2023/06/20 10:03:35;;;;;;;30.67;23.00;;;21.90;99.90;;;;;;5212534;28;20492;-43
2023/06/20 10:06:06;;;;;;;27.63;21.53;;;21.50;99.90;;;;;;5205942;28;20431;-43
2023/06/20 10:08:39;;;;;;;33.53;25.30;;;21.20;99.90;;;;;;5206849;28;20457;-43
2023/06/20 10:11:10;;;;;;;37.90;25.50;;;21.00;99.90;;;;;;5193971;28;20474;-43
2023/06/20 10:13:41;;;;;;;38.00;25.53;;;20.80;99.90;;;;;;5201014;28;20579;-44
2023/06/20 10:16:12;;;;;;;38.43;27.27;;;20.60;99.90;;;;;;5204448;28;20186;-43
2023/06/20 10:18:43;;;;;;;34.37;24.80;;;20.50;99.90;;;;;;5193634;28;20454;-43
2023/06/20 10:21:15;;;;;;;33.03;26.80;;;20.40;99.90;;;;;;5188809;28;20435;-42
2023/06/20 10:23:48;;;;;;;33.07;24.17;;;20.30;99.90;;;;;;5189204;28;20282;-43
2023/06/20 10:26:23;;;;;;;36.70;26.50;;;20.20;99.90;;;;;;5204345;28;20418;-43
2023/06/20 10:28:57;;;;;;;35.90;27.53;;;20.20;99.90;;;;;;5181511;28;20422;-42
2023/06/20 10:31:54;;;;;;;42.07;26.83;;;20.20;99.90;;;;;;5205922;28;20496;-43
2023/06/20 10:34:41;;;;;;;41.17;26.57;;;20.10;99.90;;;;;;5191011;28;20492;-44
2023/06/20 10:37:20;;;;;;;36.53;25.20;;;20.10;99.90;;;;;;5204529;28;20457;-43
2023/06/20 10:39:56;;;;;;;43.90;29.47;;;20.10;99.90;;;;;;5199915;28;20540;-46
2023/06/20 10:42:38;;;;;;;41.67;26.23;;;20.10;99.90;;;;;;5196206;28;20784;-46
2023/06/20 10:45:27;;;;;;;40.67;29.33;;;20.10;99.90;;;;;;5171812;28;20522;-45
2023/06/20 10:47:57;;;;;;;45.83;32.23;;;20.00;99.90;;;;;;5202795;28;20456;-44
2023/06/20 10:50:29;;;;;;;51.23;33.77;;;20.00;99.90;;;;;;5188387;28;20430;-45
2023/06/20 10:53:01;;;;;;;38.57;28.97;;;19.90;99.90;;;;;;5208291;28;20197;-44
2023/06/20 10:55:38;;;;;;;46.80;32.10;;;19.90;99.90;;;;;;5186702;28;20492;-45
2023/06/20 10:58:09;;;;;;;45.10;32.07;;;19.80;99.90;;;;;;5197948;28;20454;-45
2023/06/20 11:00:39;;;;;;;38.20;31.00;;;19.80;99.90;;;;;;5186750;28;20430;-45
2023/06/20 11:03:11;;;;;;;46.37;30.93;;;19.80;99.90;;;;;;5184826;28;20188;-45
2023/06/20 11:05:47;;;;;;;39.87;30.20;;;19.90;99.90;;;;;;5199801;28;20172;-45
2023/06/20 11:08:25;;;;;;;56.80;38.20;;;19.90;99.90;;;;;;5200050;28;20789;-45
2023/06/20 11:10:57;;;;;;;49.60;32.87;;;19.90;99.90;;;;;;5205607;28;20563;-46
2023/06/20 11:13:28;;;;;;;61.77;42.93;;;20.00;99.90;;;;;;5184182;28;20456;-45
2023/06/20 11:15:58;;;;;;;45.03;32.97;;;20.00;99.90;;;;;;5183817;28;20438;-45
2023/06/20 11:18:29;;;;;;;41.73;31.80;;;20.10;99.90;;;;;;5186255;28;20576;-46
2023/06/20 11:21:00;;;;;;;53.00;36.43;;;20.20;99.90;;;;;;5201687;28;20184;-45
2023/06/20 11:23:34;;;;;;;45.07;33.87;;;20.20;99.90;;;;;;5189264;28;20187;-45
2023/06/20 11:26:06;;;;;;;56.23;39.03;;;20.30;99.90;;;;;;5171902;28;20238;-45
2023/06/20 11:28:37;;;;;;;47.60;34.90;;;20.30;99.90;;;;;;5188334;28;20457;-44
2023/06/20 11:31:13;;;;;;;56.60;37.80;;;20.40;99.90;;;;;;5189937;28;20458;-44
2023/06/20 11:33:44;;;;;;;48.40;35.33;;;20.40;99.90;;;;;;5198214;28;20489;-44
2023/06/20 11:36:18;;;;;;;54.47;38.10;;;20.40;99.90;;;;;;5184056;28;20430;-45
2023/06/20 11:38:49;;;;;;;65.63;40.57;;;20.30;99.90;;;;;;5201721;28;20322;-44
2023/06/20 11:41:31;;;;;;;49.60;38.37;;;20.30;99.90;;;;;;5207397;28;21114;-45
2023/06/20 11:44:02;;;;;;;66.47;44.17;;;20.50;99.90;;;;;;5204264;28;20222;-45
2023/06/20 11:46:44;;;;;;;46.80;35.47;;;20.60;99.90;;;;;;5185637;28;20845;-45
2023/06/20 11:49:28;;;;;;;52.37;36.60;;;20.70;99.90;;;;;;5185765;28;20480;-43
2023/06/20 11:51:59;;;;;;;59.37;40.47;;;20.80;99.90;;;;;;5194229;28;21036;-45
2023/06/20 11:54:46;;;;;;;49.10;37.13;;;20.90;99.90;;;;;;5183841;28;20531;-44
2023/06/20 11:57:28;;;;;;;55.77;42.50;;;20.90;99.90;;;;;;5216961;28;20454;-45
2023/06/20 12:00:05;;;;;;;54.83;39.10;;;20.80;99.90;;;;;;5186869;28;20435;-44
2023/06/20 12:02:39;;;;;;;65.27;43.10;;;20.90;99.90;;;;;;5206735;28;20410;-45
2023/06/20 12:05:10;;;;;;;65.03;39.70;;;21.10;99.90;;;;;;5203056;28;20403;-45
2023/06/20 12:07:48;;;;;;;48.70;37.60;;;21.30;99.90;;;;;;5173090;28;20461;-44
2023/06/20 12:10:24;;;;;;;55.40;40.43;;;21.50;99.90;;;;;;5196890;28;20190;-45
2023/06/20 12:12:55;;;;;;;54.77;39.20;;;21.50;99.90;;;;;;5181274;28;20930;-44
2023/06/20 12:15:26;;;;;;;50.37;37.93;;;21.40;99.90;;;;;;5211327;28;20502;-44
2023/06/20 12:17:57;;;;;;;53.87;38.23;;;21.20;99.90;;;;;;5188882;28;20265;-44
2023/06/20 12:20:28;;;;;;;64.53;42.03;;;21.10;99.90;;;;;;5188576;28;20203;-44
2023/06/20 12:22:59;;;;;;;57.87;41.47;;;21.20;99.90;;;;;;5207814;28;20207;-43
2023/06/20 12:25:29;;;;;;;56.13;40.87;;;21.20;99.90;;;;;;5205580;28;20222;-44
2023/06/20 12:28:01;;;;;;;59.30;41.30;;;21.40;99.90;;;;;;5203848;28;20702;-44
2023/06/20 12:30:32;;;;;;;57.73;41.93;;;21.60;99.90;;;;;;5204571;28;20184;-44
2023/06/20 12:33:02;;;;;;;55.07;39.87;;;21.80;99.90;;;;;;5205662;28;20498;-44
2023/06/20 12:35:33;;;;;;;52.83;39.13;;;22.00;99.90;;;;;;5207256;28;20207;-44
2023/06/20 12:38:04;;;;;;;56.00;34.67;;;22.40;99.90;;;;;;5191063;28;20677;-44
2023/06/20 12:40:35;;;;;;;41.23;31.43;;;22.50;99.90;;;;;;5183781;28;20195;-44
2023/06/20 12:43:06;;;;;;;44.40;35.23;;;22.20;99.90;;;;;;5175006;28;20262;-44
2023/06/20 12:45:36;;;;;;;48.33;36.73;;;21.80;99.90;;;;;;5185899;28;20185;-45
2023/06/20 12:48:07;;;;;;;46.30;36.73;;;22.00;99.90;;;;;;5188587;28;20196;-44
2023/06/20 12:50:38;;;;;;;42.10;33.83;;;22.00;99.90;;;;;;5211598;28;20184;-44
2023/06/20 12:53:08;;;;;;;43.17;30.83;;;22.10;99.90;;;;;;5205516;28;20567;-45
2023/06/20 12:55:39;;;;;;;43.53;33.90;;;22.00;99.90;;;;;;5183153;28;20215;-44
2023/06/20 12:58:12;;;;;;;38.57;30.03;;;22.10;99.90;;;;;;5200862;28;20207;-44